KCEC

Del Norte County Airport

Airport
ICAO code
KCEC
IATA Code
CEC
Summary
ICAO Region
NAM
ICAO Territory
Location

Crescent City, California

Serving
Crescent City
Elevation
61 ft
Coordinates
41° 46' 48" N , 124° 14' 11" W
KCC
Airport WX
Fog
Metar
KCEC 181556Z AUTO 32004KT 7SM CLR 13/09 A3000 RMK AO2 SLP160 T01280094

Description

Del Norte County Regional Airport, also known as Jack McNamara Field, is a public use airport located 3 nm northwest of the central business district of Crescent City, in Del Norte County, California.

Airport map

Aerial View

SKYbrary Partners:

Safety knowledge contributed by: